Time;durP1;ratioP1;P1;durP2;ratioP2;P2;SDS_P1;SDS_P2;PMS_P1;PMS_P2;Temp;Humidity;BMP_temperature;BMP_pressure;BME280_temperature;BME280_humidity;BME280_pressure;Samples;Min_cycle;Max_cycle;Signal;HPM_P1;HPM_P2
2022/12/24 00:03:51;;;;;;;57.05;25.27;;;;;;;;;;8365298;28;20037;-90
2022/12/24 00:07:56;;;;;;;91.25;26.55;;;;;;;;;;8365274;28;20041;-92
2022/12/24 00:16:55;;;;;;;59.65;24.98;;;;;;;;;;8365456;28;20095;-91
2022/12/24 00:25:55;;;;;;;59.10;25.27;;;;;;;;;;8365845;28;20487;-91
2022/12/24 00:30:27;;;;;;;60.47;26.00;;;;;;;;;;8371544;28;20051;-91
2022/12/24 00:34:32;;;;;;;57.67;26.83;;;;;;;;;;8372197;28;20052;-91
2022/12/24 00:38:36;;;;;;;56.50;20.05;;;;;;;;;;8371057;28;20045;-89
2022/12/24 00:42:41;;;;;;;139.63;25.83;;;;;;;;;;8353948;28;20099;-90
2022/12/24 00:46:46;;;;;;;61.70;24.27;;;;;;;;;;8355127;28;20052;-90
2022/12/24 00:50:54;;;;;;;77.80;29.88;;;;;;;;;;8353675;28;20049;-89
2022/12/24 00:54:57;;;;;;;157.00;34.55;;;;;;;;;;8370942;28;20045;-92
2022/12/24 00:59:02;;;;;;;73.15;28.13;;;;;;;;;;8370788;28;20036;-90
2022/12/24 01:03:08;;;;;;;73.57;28.95;;;;;;;;;;8354982;28;20051;-91
2022/12/24 01:07:16;;;;;;;71.28;26.42;;;;;;;;;;8372004;28;20210;-91
2022/12/24 01:11:20;;;;;;;120.50;28.63;;;;;;;;;;8375408;28;20033;-94
2022/12/24 01:15:25;;;;;;;55.20;24.17;;;;;;;;;;8375915;28;20076;-93
2022/12/24 01:19:34;;;;;;;58.75;25.58;;;;;;;;;;8373815;28;20044;-91
2022/12/24 01:24:15;;;;;;;62.42;24.42;;;;;;;;;;8373413;28;20095;-92
2022/12/24 01:28:22;;;;;;;54.67;22.80;;;;;;;;;;8357383;28;20061;-93
2022/12/24 01:32:25;;;;;;;65.90;25.80;;;;;;;;;;8356392;28;20037;-91
2022/12/24 01:36:36;;;;;;;55.28;24.80;;;;;;;;;;8356563;28;20175;-93
2022/12/24 01:45:47;;;;;;;69.28;25.05;;;;;;;;;;8367830;28;20059;-91
2022/12/24 01:49:54;;;;;;;58.55;24.20;;;;;;;;;;8354506;28;20079;-94
2022/12/24 01:54:04;;;;;;;53.28;22.88;;;;;;;;;;8355111;28;20048;-90
2022/12/24 01:58:12;;;;;;;65.30;24.70;;;;;;;;;;8370496;28;20045;-91
2022/12/24 02:07:06;;;;;;;48.45;22.30;;;;;;;;;;8369694;28;20404;-93
2022/12/24 02:11:16;;;;;;;54.92;23.88;;;;;;;;;;8352419;28;20045;-91
2022/12/24 02:15:21;;;;;;;63.45;21.52;;;;;;;;;;8371468;28;20048;-94
2022/12/24 02:20:02;;;;;;;64.10;23.17;;;;;;;;;;8352779;28;20071;-91
2022/12/24 02:24:35;;;;;;;50.22;21.67;;;;;;;;;;8371999;28;20047;-93
2022/12/24 02:29:07;;;;;;;39.92;18.20;;;;;;;;;;8374527;28;20037;-91
2022/12/24 02:33:27;;;;;;;98.05;18.13;;;;;;;;;;8359055;28;20041;-90
2022/12/24 02:37:38;;;;;;;40.60;18.25;;;;;;;;;;8366370;28;20056;-94
2022/12/24 02:46:30;;;;;;;44.60;17.52;;;;;;;;;;8324103;28;20060;-92
2022/12/24 02:50:41;;;;;;;41.17;16.92;;;;;;;;;;8347828;28;20045;-90
2022/12/24 02:54:47;;;;;;;41.20;16.60;;;;;;;;;;8373123;28;20159;-90
2022/12/24 02:59:13;;;;;;;37.15;14.52;;;;;;;;;;8350362;28;20051;-92
2022/12/24 03:03:34;;;;;;;44.45;18.00;;;;;;;;;;8366683;28;20099;-92
2022/12/24 03:07:45;;;;;;;163.82;18.33;;;;;;;;;;8352436;28;20047;-93
2022/12/24 03:11:54;;;;;;;;;;;;;;;;;;8351259;28;20077;-94
2022/12/24 03:15:57;;;;;;;41.47;15.35;;;;;;;;;;8370375;28;19962;-95
2022/12/24 03:20:02;;;;;;;37.55;16.70;;;;;;;;;;8353931;28;20131;-95
2022/12/24 03:24:09;;;;;;;59.42;23.13;;;;;;;;;;8370586;28;20051;-94
2022/12/24 03:28:17;;;;;;;69.07;27.25;;;;;;;;;;8352401;28;20049;-96
2022/12/24 03:32:26;;;;;;;96.97;26.20;;;;;;;;;;8349704;28;20064;-95
2022/12/24 03:36:31;;;;;;;70.88;26.17;;;;;;;;;;8350104;28;20054;-95
2022/12/24 03:40:37;;;;;;;54.83;21.10;;;;;;;;;;8348816;28;20049;-91
2022/12/24 03:44:41;;;;;;;47.85;19.70;;;;;;;;;;8348927;28;20045;-94
2022/12/24 03:48:44;;;;;;;55.65;25.35;;;;;;;;;;8366678;28;20087;-93
2022/12/24 03:52:49;;;;;;;73.97;34.20;;;;;;;;;;8368109;28;20036;-95
2022/12/24 03:56:54;;;;;;;76.95;32.63;;;;;;;;;;8349230;28;20067;-93
2022/12/24 04:00:59;;;;;;;46.03;20.92;;;;;;;;;;8350312;28;20049;-93
2022/12/24 04:05:02;;;;;;;88.65;22.60;;;;;;;;;;8367953;28;20048;-93
2022/12/24 04:09:07;;;;;;;40.30;17.30;;;;;;;;;;8366424;28;20037;-93
2022/12/24 04:13:13;;;;;;;46.15;18.65;;;;;;;;;;8348820;28;20052;-93
2022/12/24 04:17:18;;;;;;;60.55;25.98;;;;;;;;;;8369692;28;20041;-92
2022/12/24 04:21:22;;;;;;;77.40;18.48;;;;;;;;;;8362387;28;20102;-94
2022/12/24 04:25:25;;;;;;;55.53;20.73;;;;;;;;;;8382475;28;20061;-92
2022/12/24 04:29:32;;;;;;;49.15;21.85;;;;;;;;;;8377225;28;20083;-92
2022/12/24 04:33:37;;;;;;;44.55;18.35;;;;;;;;;;8353842;28;20041;-91
2022/12/24 04:37:41;;;;;;;52.17;21.38;;;;;;;;;;8372096;28;20041;-91
2022/12/24 04:41:45;;;;;;;55.72;19.83;;;;;;;;;;8370971;28;20041;-93
2022/12/24 04:45:51;;;;;;;48.85;21.67;;;;;;;;;;8371564;28;20053;-92
2022/12/24 04:49:55;;;;;;;61.38;22.02;;;;;;;;;;8372646;28;20090;-92
2022/12/24 04:53:59;;;;;;;40.88;19.23;;;;;;;;;;8369042;28;20041;-90
2022/12/24 04:58:02;;;;;;;129.45;17.40;;;;;;;;;;8368477;28;20076;-92
2022/12/24 05:02:09;;;;;;;38.25;15.98;;;;;;;;;;8368202;28;20045;-93
2022/12/24 05:06:16;;;;;;;43.42;14.70;;;;;;;;;;8368288;28;20175;-92
2022/12/24 05:10:19;;;;;;;37.90;16.95;;;;;;;;;;8367885;28;20045;-91
2022/12/24 05:14:23;;;;;;;66.07;19.48;;;;;;;;;;8353322;28;20037;-93
2022/12/24 05:18:30;;;;;;;66.72;18.23;;;;;;;;;;8374607;28;20067;-92
2022/12/24 05:26:58;;;;;;;44.90;19.00;;;;;;;;;;8381022;28;20053;-93
2022/12/24 05:31:01;;;;;;;129.57;17.83;;;;;;;;;;8373916;28;20276;-91
2022/12/24 05:35:09;;;;;;;43.83;18.55;;;;;;;;;;8356255;28;20067;-92
2022/12/24 05:39:15;;;;;;;44.50;22.17;;;;;;;;;;8354096;28;20052;-93
2022/12/24 05:43:19;;;;;;;180.38;22.23;;;;;;;;;;8354099;28;20049;-93
2022/12/24 05:47:24;;;;;;;59.35;21.33;;;;;;;;;;8369983;28;20086;-94
2022/12/24 05:51:30;;;;;;;42.22;17.73;;;;;;;;;;8369903;28;20060;-94
2022/12/24 05:55:35;;;;;;;49.10;19.40;;;;;;;;;;8370872;28;20061;-90
2022/12/24 05:59:40;;;;;;;137.70;43.45;;;;;;;;;;8352031;28;20074;-90
2022/12/24 06:03:45;;;;;;;97.88;31.08;;;;;;;;;;8351564;28;20045;-90
2022/12/24 06:07:51;;;;;;;40.17;15.52;;;;;;;;;;8351854;28;20048;-93
2022/12/24 06:11:55;;;;;;;35.88;15.82;;;;;;;;;;8351911;28;20049;-95
2022/12/24 06:16:01;;;;;;;38.95;16.02;;;;;;;;;;8368933;28;20040;-93
2022/12/24 06:20:06;;;;;;;45.13;15.95;;;;;;;;;;8368912;28;20045;-90
2022/12/24 06:24:12;;;;;;;71.93;23.77;;;;;;;;;;8369229;28;20159;-91
2022/12/24 06:28:17;;;;;;;121.28;37.03;;;;;;;;;;8350692;28;20049;-94
2022/12/24 06:32:21;;;;;;;70.00;21.63;;;;;;;;;;8369231;28;20044;-94
2022/12/24 06:36:26;;;;;;;59.70;20.30;;;;;;;;;;8368570;28;20033;-93
2022/12/24 06:40:35;;;;;;;105.00;42.42;;;;;;;;;;8368345;28;20174;-94
2022/12/24 06:44:43;;;;;;;80.75;16.90;;;;;;;;;;8350202;28;20083;-96
2022/12/24 06:48:48;;;;;;;118.55;42.25;;;;;;;;;;8349721;28;20057;-94
2022/12/24 06:52:52;;;;;;;63.15;25.08;;;;;;;;;;8369846;28;20033;-96
2022/12/24 06:56:59;;;;;;;55.72;23.17;;;;;;;;;;8367539;28;20040;-94
2022/12/24 07:01:04;;;;;;;47.90;22.00;;;;;;;;;;8349380;28;20040;-93
2022/12/24 07:05:10;;;;;;;82.95;40.83;;;;;;;;;;8349960;28;20075;-92
2022/12/24 07:09:15;;;;;;;60.00;25.08;;;;;;;;;;8367693;28;20048;-93
2022/12/24 07:13:21;;;;;;;81.60;31.38;;;;;;;;;;8350033;28;20064;-92
2022/12/24 07:17:26;;;;;;;55.80;25.52;;;;;;;;;;8367937;28;20049;-93
2022/12/24 07:21:34;;;;;;;51.00;20.13;;;;;;;;;;8366770;28;20041;-93
2022/12/24 07:25:42;;;;;;;38.63;21.13;;;;;;;;;;8367252;28;20091;-93
2022/12/24 07:29:49;;;;;;;43.28;20.95;;;;;;;;;;8350753;28;20154;-94
2022/12/24 07:38:54;;;;;;;63.15;27.40;;;;;;;;;;8365851;28;20048;-91
2022/12/24 07:43:01;;;;;;;48.88;21.95;;;;;;;;;;8349824;28;20045;-92
2022/12/24 07:47:06;;;;;;;38.92;19.65;;;;;;;;;;8348228;28;20049;-91
2022/12/24 07:51:10;;;;;;;43.95;21.15;;;;;;;;;;8366218;28;20041;-92
2022/12/24 07:55:14;;;;;;;49.13;23.55;;;;;;;;;;8366610;28;20048;-93
2022/12/24 07:59:23;;;;;;;42.38;20.30;;;;;;;;;;8365768;28;20090;-91
2022/12/24 08:03:29;;;;;;;39.55;22.33;;;;;;;;;;8366405;28;20048;-91
2022/12/24 08:07:33;;;;;;;38.28;19.92;;;;;;;;;;8348321;28;20079;-90
2022/12/24 08:11:37;;;;;;;39.00;19.38;;;;;;;;;;8365467;28;20048;-91
2022/12/24 08:15:41;;;;;;;31.65;16.98;;;;;;;;;;8365096;28;20052;-92
2022/12/24 08:19:46;;;;;;;44.42;19.80;;;;;;;;;;8364983;28;20037;-92
2022/12/24 08:23:59;;;;;;;35.20;17.75;;;;;;;;;;8365139;28;20076;-93
2022/12/24 08:28:04;;;;;;;117.53;22.15;;;;;;;;;;8365093;28;20045;-92
2022/12/24 08:32:15;;;;;;;39.30;19.48;;;;;;;;;;8368560;28;20048;-91
2022/12/24 08:36:28;;;;;;;62.20;25.80;;;;;;;;;;8375257;28;20041;-92
2022/12/24 08:45:44;;;;;;;56.10;29.05;;;;;;;;;;8368056;28;20546;-90
2022/12/24 08:49:52;;;;;;;52.28;27.13;;;;;;;;;;8369855;28;20038;-90
2022/12/24 08:54:02;;;;;;;51.70;24.67;;;;;;;;;;8353856;28;20056;-89
2022/12/24 08:58:12;;;;;;;40.08;19.75;;;;;;;;;;8374724;28;20041;-90
2022/12/24 09:02:17;;;;;;;36.38;18.15;;;;;;;;;;8353112;28;20523;-90
2022/12/24 09:06:22;;;;;;;37.47;18.50;;;;;;;;;;8353697;28;20045;-89
2022/12/24 09:10:30;;;;;;;32.33;16.25;;;;;;;;;;8370445;28;20044;-91
2022/12/24 09:14:37;;;;;;;35.90;19.73;;;;;;;;;;8352743;28;20041;-88
2022/12/24 09:18:43;;;;;;;204.95;19.17;;;;;;;;;;8353080;28;20093;-90
2022/12/24 09:22:51;;;;;;;40.60;20.13;;;;;;;;;;8372720;28;20041;-94
2022/12/24 09:26:58;;;;;;;39.65;19.13;;;;;;;;;;8349714;28;20056;-91
2022/12/24 09:31:05;;;;;;;59.05;30.33;;;;;;;;;;8352612;28;20075;-91
2022/12/24 09:35:15;;;;;;;32.70;18.15;;;;;;;;;;8371375;28;20041;-89
2022/12/24 09:39:21;;;;;;;43.17;22.55;;;;;;;;;;8354552;28;20052;-92
2022/12/24 09:44:07;;;;;;;55.53;16.50;;;;;;;;;;8384752;28;20053;-92
2022/12/24 09:48:25;;;;;;;154.00;18.15;;;;;;;;;;8382001;28;20424;-94
2022/12/24 09:52:36;;;;;;;174.50;19.88;;;;;;;;;;8356563;28;20045;-92
2022/12/24 09:56:42;;;;;;;40.07;19.97;;;;;;;;;;8358521;28;20064;-96
2022/12/24 10:06:40;;;;;;;188.10;27.60;;;;;;;;;;8346510;28;20464;-93
2022/12/24 10:10:53;;;;;;;79.15;28.23;;;;;;;;;;8351207;28;20053;-92
2022/12/24 10:15:17;;;;;;;107.60;35.90;;;;;;;;;;8345534;28;20132;-91
2022/12/24 10:19:26;;;;;;;43.08;22.42;;;;;;;;;;8333439;28;20053;-91
2022/12/24 10:23:41;;;;;;;52.15;22.67;;;;;;;;;;8332153;28;20054;-92
2022/12/24 10:27:58;;;;;;;41.38;20.23;;;;;;;;;;8334347;28;20051;-91
2022/12/24 10:32:30;;;;;;;34.45;16.17;;;;;;;;;;8337033;28;20128;-91
2022/12/24 10:36:39;;;;;;;33.95;18.73;;;;;;;;;;8338133;28;20056;-91
2022/12/24 10:40:54;;;;;;;78.50;20.38;;;;;;;;;;8343066;28;20041;-91
2022/12/24 10:50:04;;;;;;;241.90;23.20;;;;;;;;;;8340604;28;20562;-93
2022/12/24 10:54:21;;;;;;;285.75;26.38;;;;;;;;;;8317728;28;20132;-91
2022/12/24 10:58:27;;;;;;;65.10;20.23;;;;;;;;;;8351216;28;20045;-90
2022/12/24 11:02:35;;;;;;;55.40;21.13;;;;;;;;;;8350169;28;20060;-91
2022/12/24 11:06:58;;;;;;;54.15;23.20;;;;;;;;;;8343296;28;20132;-92
2022/12/24 11:11:06;;;;;;;93.45;24.50;;;;;;;;;;8334320;28;20057;-91
2022/12/24 11:15:35;;;;;;;208.55;24.85;;;;;;;;;;8352461;28;20489;-91
2022/12/24 11:19:58;;;;;;;486.30;32.03;;;;;;;;;;8345735;28;20041;-91
2022/12/24 11:24:18;;;;;;;161.23;27.30;;;;;;;;;;8347373;28;20060;-92
2022/12/24 11:28:25;;;;;;;236.57;28.00;;;;;;;;;;8334194;28;20070;-90
2022/12/24 11:32:33;;;;;;;79.78;29.23;;;;;;;;;;8340176;28;20107;-91
2022/12/24 11:36:38;;;;;;;362.50;35.22;;;;;;;;;;8336773;28;20076;-95
2022/12/24 11:40:46;;;;;;;425.23;34.78;;;;;;;;;;8332947;28;20045;-95
2022/12/24 11:44:58;;;;;;;59.50;22.08;;;;;;;;;;8337072;28;20057;-93
2022/12/24 11:49:23;;;;;;;36.83;16.13;;;;;;;;;;8327387;28;20057;-94
2022/12/24 11:53:35;;;;;;;43.20;17.13;;;;;;;;;;8334339;28;20041;-94
2022/12/24 11:57:50;;;;;;;53.97;20.05;;;;;;;;;;8347459;28;20045;-90
2022/12/24 12:02:00;;;;;;;185.65;22.13;;;;;;;;;;8337736;28;20049;-91
2022/12/24 12:06:22;;;;;;;86.75;25.25;;;;;;;;;;8333454;28;20096;-92
2022/12/24 12:10:29;;;;;;;70.93;25.02;;;;;;;;;;8333614;28;20037;-90
2022/12/24 12:14:41;;;;;;;169.18;24.80;;;;;;;;;;8333082;28;20099;-92
2022/12/24 12:18:53;;;;;;;243.15;30.90;;;;;;;;;;8330048;28;20045;-92
2022/12/24 12:23:04;;;;;;;227.05;27.77;;;;;;;;;;8335013;28;20041;-91
2022/12/24 12:27:20;;;;;;;61.63;26.15;;;;;;;;;;8341100;28;20049;-91
2022/12/24 12:31:29;;;;;;;156.35;30.95;;;;;;;;;;8342652;28;20103;-95
2022/12/24 12:35:38;;;;;;;106.65;30.38;;;;;;;;;;8344662;28;20045;-93
2022/12/24 12:39:46;;;;;;;81.43;30.50;;;;;;;;;;8344573;28;20045;-95
2022/12/24 12:44:09;;;;;;;81.30;27.23;;;;;;;;;;8347113;28;20053;-96
2022/12/24 12:48:50;;;;;;;96.90;23.80;;;;;;;;;;8335999;28;20041;-96
2022/12/24 12:53:12;;;;;;;43.63;19.47;;;;;;;;;;8341306;28;20050;-94
2022/12/24 12:57:25;;;;;;;117.82;23.02;;;;;;;;;;8347819;28;20048;-94
2022/12/24 13:01:44;;;;;;;57.70;22.40;;;;;;;;;;8344328;28;20176;-94
2022/12/24 13:06:24;;;;;;;238.95;28.45;;;;;;;;;;8356670;28;20057;-94
2022/12/24 13:10:50;;;;;;;83.45;25.88;;;;;;;;;;8339365;28;20096;-94
2022/12/24 13:15:22;;;;;;;96.22;25.67;;;;;;;;;;8339095;28;20044;-94
2022/12/24 13:19:43;;;;;;;56.05;24.65;;;;;;;;;;8338223;28;20045;-94
2022/12/24 13:23:49;;;;;;;56.28;25.52;;;;;;;;;;8339031;28;20037;-93
2022/12/24 13:27:57;;;;;;;69.50;23.42;;;;;;;;;;8336249;28;20096;-92
2022/12/24 13:32:50;;;;;;;71.07;26.20;;;;;;;;;;8328777;28;20128;-91
2022/12/24 13:37:22;;;;;;;57.40;25.73;;;;;;;;;;8336514;28;20061;-90
2022/12/24 13:41:59;;;;;;;105.53;29.25;;;;;;;;;;8338901;28;20033;-94
2022/12/24 13:46:27;;;;;;;90.63;32.30;;;;;;;;;;8351093;28;20045;-96
2022/12/24 13:50:43;;;;;;;373.75;36.80;;;;;;;;;;8150403;29;20048;-95
2022/12/24 13:55:21;;;;;;;128.50;31.85;;;;;;;;;;8166409;29;20055;-96
2022/12/24 13:59:39;;;;;;;306.42;33.58;;;;;;;;;;8163158;29;20044;-95
2022/12/24 14:08:29;;;;;;;118.13;34.97;;;;;;;;;;8164439;29;20056;-96
2022/12/24 14:28:24;;;;;;;83.63;22.17;;;;;;;;;;8404925;22;20060;-96
2022/12/24 14:33:02;;;;;;;146.57;23.88;;;;;;;;;;8432004;28;20040;-96
2022/12/24 14:37:36;;;;;;;64.10;24.15;;;;;;;;;;8436015;28;20032;-93
2022/12/24 14:41:56;;;;;;;140.05;27.58;;;;;;;;;;8399824;28;20044;-94
2022/12/24 14:46:18;;;;;;;71.70;26.52;;;;;;;;;;8398256;28;20045;-94
2022/12/24 14:50:54;;;;;;;84.50;24.70;;;;;;;;;;8407804;28;20047;-93
2022/12/24 14:55:02;;;;;;;128.10;23.42;;;;;;;;;;8412111;28;20119;-93
2022/12/24 14:59:25;;;;;;;173.90;23.75;;;;;;;;;;8398411;28;20041;-94
2022/12/24 15:48:55;;;;;;;253.15;24.90;;;;;;;;;;9425158;23;20097;-95
2022/12/24 15:53:33;;;;;;;180.00;26.52;;;;;;;;;;8048895;29;20081;-92
2022/12/24 15:57:54;;;;;;;279.65;27.27;;;;;;;;;;8047399;29;20085;-95
2022/12/24 16:02:42;;;;;;;233.60;29.42;;;;;;;;;;8049333;29;20109;-90
2022/12/24 16:06:56;;;;;;;97.88;24.77;;;;;;;;;;8015168;29;20053;-91
2022/12/24 16:11:17;;;;;;;183.85;27.85;;;;;;;;;;8048782;29;20053;-91
2022/12/24 16:15:24;;;;;;;70.25;26.10;;;;;;;;;;8053525;29;20136;-92
2022/12/24 16:19:33;;;;;;;202.48;28.65;;;;;;;;;;8064826;29;20066;-96
2022/12/24 16:23:46;;;;;;;514.30;37.17;;;;;;;;;;8044726;29;20105;-96
2022/12/24 16:27:52;;;;;;;;;;;;;;;;;;8058915;29;20116;-89
2022/12/24 16:32:07;;;;;;;161.88;26.70;;;;;;;;;;8046725;29;19924;-89
2022/12/24 16:36:26;;;;;;;147.43;28.63;;;;;;;;;;8040328;29;20097;-88
2022/12/24 16:40:45;;;;;;;146.98;29.65;;;;;;;;;;8072576;29;20061;-90
2022/12/24 16:44:57;;;;;;;338.55;32.33;;;;;;;;;;8050694;29;20159;-89
2022/12/24 16:49:18;;;;;;;294.55;32.72;;;;;;;;;;8045101;29;20061;-90
2022/12/24 16:53:38;;;;;;;251.05;28.73;;;;;;;;;;8044516;29;20061;-88
2022/12/24 16:57:59;;;;;;;304.13;30.02;;;;;;;;;;8029346;29;20046;-93
2022/12/24 17:02:08;;;;;;;202.48;33.75;;;;;;;;;;8062225;29;20045;-95
2022/12/24 17:06:15;;;;;;;314.85;39.55;;;;;;;;;;8085662;29;20084;-96
2022/12/24 17:10:23;;;;;;;76.88;25.77;;;;;;;;;;8150120;29;20048;-92
2022/12/24 17:14:30;;;;;;;95.80;25.45;;;;;;;;;;8149737;29;20044;-93
2022/12/24 17:18:38;;;;;;;309.52;31.67;;;;;;;;;;8150869;29;20052;-92
2022/12/24 17:22:44;;;;;;;244.20;30.58;;;;;;;;;;8149508;29;20099;-95
2022/12/24 17:26:49;;;;;;;109.30;28.83;;;;;;;;;;8152010;29;20095;-95
2022/12/24 17:30:57;;;;;;;86.00;23.48;;;;;;;;;;8151798;29;20055;-94
2022/12/24 17:35:06;;;;;;;70.80;25.17;;;;;;;;;;8156684;29;20104;-94
2022/12/24 17:39:16;;;;;;;99.45;23.45;;;;;;;;;;8154151;29;20055;-96
2022/12/24 17:43:21;;;;;;;64.22;24.42;;;;;;;;;;8159370;29;20048;-94
2022/12/24 17:47:29;;;;;;;139.77;26.52;;;;;;;;;;8178055;29;20058;-95
2022/12/24 17:51:41;;;;;;;225.98;30.10;;;;;;;;;;8168000;29;20079;-95
2022/12/24 17:55:45;;;;;;;;;;;;;;;;;;8151732;29;20052;-93
2022/12/24 17:59:51;;;;;;;64.93;23.08;;;;;;;;;;8153390;29;19923;-96
2022/12/24 18:04:00;;;;;;;74.60;21.27;;;;;;;;;;8161490;29;20048;-96
2022/12/24 18:08:10;;;;;;;46.40;18.30;;;;;;;;;;8160345;29;20047;-95
2022/12/24 18:12:20;;;;;;;229.48;18.80;;;;;;;;;;8159152;29;20067;-94
2022/12/24 18:16:30;;;;;;;65.35;17.70;;;;;;;;;;8143341;29;20040;-94
2022/12/24 18:20:37;;;;;;;96.85;17.30;;;;;;;;;;8144382;29;20051;-94
2022/12/24 18:24:45;;;;;;;42.45;16.75;;;;;;;;;;8162857;29;20047;-89
2022/12/24 18:29:03;;;;;;;34.30;15.00;;;;;;;;;;8171736;29;20071;-90
2022/12/24 18:33:10;;;;;;;53.33;20.27;;;;;;;;;;8157908;29;20048;-90
2022/12/24 18:37:26;;;;;;;31.98;14.25;;;;;;;;;;8169923;29;20043;-90
2022/12/24 18:41:35;;;;;;;30.08;15.38;;;;;;;;;;8166937;29;20095;-91
2022/12/24 18:45:42;;;;;;;29.67;12.70;;;;;;;;;;8145149;29;20052;-93
2022/12/24 18:49:47;;;;;;;43.63;15.75;;;;;;;;;;8153915;29;20052;-96
2022/12/24 18:53:53;;;;;;;38.38;14.63;;;;;;;;;;8174354;29;20427;-94
2022/12/24 18:58:02;;;;;;;36.13;13.18;;;;;;;;;;8167958;29;20090;-91
2022/12/24 19:02:15;;;;;;;41.03;13.20;;;;;;;;;;8169235;29;20047;-91
2022/12/24 19:06:23;;;;;;;34.35;15.05;;;;;;;;;;8168311;29;20060;-92
2022/12/24 19:10:31;;;;;;;188.45;15.63;;;;;;;;;;8164641;29;20044;-92
2022/12/24 19:14:38;;;;;;;45.30;12.75;;;;;;;;;;8161511;29;20075;-92
2022/12/24 19:18:43;;;;;;;24.25;11.95;;;;;;;;;;8160808;29;20054;-91
2022/12/24 19:22:48;;;;;;;59.17;14.20;;;;;;;;;;8165758;29;20051;-91
2022/12/24 19:26:55;;;;;;;114.45;13.25;;;;;;;;;;8164064;29;20047;-91
2022/12/24 19:31:06;;;;;;;44.60;14.40;;;;;;;;;;8162685;29;20058;-91
2022/12/24 19:35:10;;;;;;;41.58;12.23;;;;;;;;;;8177607;29;20039;-95
2022/12/24 19:39:16;;;;;;;35.05;12.13;;;;;;;;;;8182636;29;20048;-94
2022/12/24 19:43:21;;;;;;;45.67;12.57;;;;;;;;;;8192267;29;20044;-94
2022/12/24 19:47:28;;;;;;;34.88;11.93;;;;;;;;;;8159260;29;20108;-95
2022/12/24 19:51:35;;;;;;;113.90;12.27;;;;;;;;;;8157171;29;20056;-93
2022/12/24 19:55:46;;;;;;;46.45;17.80;;;;;;;;;;8160611;29;20047;-93
2022/12/24 19:59:51;;;;;;;42.55;16.70;;;;;;;;;;8176304;29;20048;-93
2022/12/24 20:04:00;;;;;;;88.85;22.88;;;;;;;;;;8160316;29;20059;-92
2022/12/24 20:08:05;;;;;;;34.13;12.65;;;;;;;;;;8176752;29;20047;-93
2022/12/24 20:12:10;;;;;;;30.95;13.30;;;;;;;;;;8157422;29;20047;-92
2022/12/24 20:16:19;;;;;;;31.67;11.73;;;;;;;;;;8157356;29;20040;-93
2022/12/24 20:20:40;;;;;;;34.55;8.88;;;;;;;;;;8158779;29;20059;-94
2022/12/24 20:24:48;;;;;;;26.65;11.07;;;;;;;;;;8172907;29;20052;-92
2022/12/24 20:28:56;;;;;;;23.05;8.77;;;;;;;;;;8174542;29;20050;-93
2022/12/24 20:33:04;;;;;;;28.48;14.27;;;;;;;;;;8157264;29;20102;-96
2022/12/24 20:37:18;;;;;;;74.35;15.63;;;;;;;;;;8169179;29;20103;-95
2022/12/24 20:41:32;;;;;;;57.40;18.77;;;;;;;;;;8169852;29;20052;-96
2022/12/24 20:45:40;;;;;;;59.50;17.25;;;;;;;;;;8171460;29;20055;-95
2022/12/24 20:49:50;;;;;;;77.43;23.52;;;;;;;;;;8173998;29;20048;-95
2022/12/24 20:54:02;;;;;;;69.95;22.35;;;;;;;;;;8189734;29;20075;-95
2022/12/24 20:58:11;;;;;;;134.45;20.30;;;;;;;;;;8172977;29;20054;-95
2022/12/24 21:02:20;;;;;;;66.47;19.20;;;;;;;;;;8190090;29;20044;-95
2022/12/24 21:06:33;;;;;;;90.95;17.13;;;;;;;;;;8174378;29;20055;-96
2022/12/24 21:12:47;;;;;;;56.95;18.88;;;;;;;;;;8174563;29;20058;-95
2022/12/24 21:15:15;;;;;;;50.60;18.58;;;;;;;;;;8191981;29;20131;-96
2022/12/24 21:19:27;;;;;;;53.03;19.13;;;;;;;;;;8176519;29;20051;-95
2022/12/24 21:23:38;;;;;;;48.20;16.60;;;;;;;;;;8198129;29;20044;-94
2022/12/24 21:27:54;;;;;;;47.13;15.85;;;;;;;;;;8182782;29;20055;-96
2022/12/24 21:32:04;;;;;;;49.60;16.65;;;;;;;;;;8182674;29;20086;-95
2022/12/24 21:36:28;;;;;;;53.03;17.38;;;;;;;;;;8186212;29;20138;-96
2022/12/24 21:40:44;;;;;;;55.83;16.95;;;;;;;;;;8187363;29;20056;-95
2022/12/24 21:44:54;;;;;;;50.15;16.52;;;;;;;;;;8177041;29;20173;-92
2022/12/24 21:57:53;;;;;;;45.92;17.17;;;;;;;;;;8183926;29;20053;-93
2022/12/24 22:02:01;;;;;;;47.40;16.80;;;;;;;;;;8183603;29;20051;-93
2022/12/24 22:06:08;;;;;;;46.03;17.00;;;;;;;;;;8168211;29;20052;-93
2022/12/24 22:14:35;;;;;;;60.40;18.75;;;;;;;;;;8181418;29;20044;-93
2022/12/24 22:18:42;;;;;;;46.33;18.90;;;;;;;;;;8164441;29;20047;-91
2022/12/24 22:22:48;;;;;;;53.92;18.50;;;;;;;;;;8179219;29;20043;-93
2022/12/24 22:26:54;;;;;;;59.40;20.15;;;;;;;;;;8162795;29;20072;-93
2022/12/24 22:30:57;;;;;;;48.47;17.85;;;;;;;;;;8162805;29;20074;-93
2022/12/24 22:35:04;;;;;;;45.35;17.33;;;;;;;;;;8176316;29;20044;-93
2022/12/24 22:39:08;;;;;;;56.75;18.55;;;;;;;;;;8158480;29;20048;-93
2022/12/24 22:43:13;;;;;;;55.35;18.55;;;;;;;;;;8159000;29;20072;-93
2022/12/24 22:47:17;;;;;;;45.42;19.65;;;;;;;;;;8159746;29;20117;-94
2022/12/24 22:51:26;;;;;;;48.40;17.77;;;;;;;;;;8162433;29;20107;-95
2022/12/24 22:55:30;;;;;;;54.03;19.77;;;;;;;;;;8159631;29;20066;-92
2022/12/24 22:59:35;;;;;;;52.83;20.92;;;;;;;;;;8159566;29;20043;-93
2022/12/24 23:03:39;;;;;;;52.15;19.40;;;;;;;;;;8176854;29;20039;-93
2022/12/24 23:07:46;;;;;;;55.67;21.40;;;;;;;;;;8176157;29;20071;-92
2022/12/24 23:11:50;;;;;;;84.45;18.83;;;;;;;;;;8176826;29;20072;-94
2022/12/24 23:15:54;;;;;;;72.72;19.48;;;;;;;;;;8158160;29;20126;-94
2022/12/24 23:19:58;;;;;;;53.63;18.40;;;;;;;;;;8158068;29;20047;-95
2022/12/24 23:24:07;;;;;;;45.70;18.40;;;;;;;;;;8159296;29;20044;-94
2022/12/24 23:28:10;;;;;;;45.45;16.33;;;;;;;;;;8157549;29;20055;-93
2022/12/24 23:32:14;;;;;;;35.58;13.93;;;;;;;;;;8157570;29;20050;-93
2022/12/24 23:36:19;;;;;;;33.17;13.40;;;;;;;;;;8175708;29;20043;-93
2022/12/24 23:40:25;;;;;;;30.38;13.18;;;;;;;;;;8163225;29;20052;-93
2022/12/24 23:44:29;;;;;;;28.70;11.75;;;;;;;;;;8161984;29;20052;-93
2022/12/24 23:48:34;;;;;;;27.05;11.30;;;;;;;;;;8159799;29;20071;-93
2022/12/24 23:52:39;;;;;;;27.52;11.25;;;;;;;;;;8177361;29;20043;-93
2022/12/24 23:56:46;;;;;;;22.40;9.23;;;;;;;;;;8159941;29;20051;-93
